sensor_id;sensor_type;location;lat;lon;timestamp;P1;durP1;ratioP1;P2;durP2;ratioP2
32333;SDS011;18810;53.040;8.850;2024-01-30T00:01:58;24.73;;;18.88;;
32333;SDS011;18810;53.040;8.850;2024-01-30T00:04:24;30.48;;;20.45;;
32333;SDS011;18810;53.040;8.850;2024-01-30T00:06:50;30.10;;;19.83;;
32333;SDS011;18810;53.040;8.850;2024-01-30T00:09:18;27.17;;;19.15;;
32333;SDS011;18810;53.040;8.850;2024-01-30T00:11:44;27.77;;;19.83;;
32333;SDS011;18810;53.040;8.850;2024-01-30T00:14:10;28.90;;;19.55;;
32333;SDS011;18810;53.040;8.850;2024-01-30T00:16:37;26.95;;;19.30;;
32333;SDS011;18810;53.040;8.850;2024-01-30T00:19:03;26.77;;;19.33;;
32333;SDS011;18810;53.040;8.850;2024-01-30T00:21:29;28.52;;;20.00;;
32333;SDS011;18810;53.040;8.850;2024-01-30T00:23:54;27.00;;;19.08;;
32333;SDS011;18810;53.040;8.850;2024-01-30T00:26:20;24.58;;;18.58;;
32333;SDS011;18810;53.040;8.850;2024-01-30T00:28:46;28.33;;;19.08;;
32333;SDS011;18810;53.040;8.850;2024-01-30T00:31:11;28.35;;;19.77;;
32333;SDS011;18810;53.040;8.850;2024-01-30T00:33:40;29.23;;;19.92;;
32333;SDS011;18810;53.040;8.850;2024-01-30T00:36:07;25.83;;;18.55;;
32333;SDS011;18810;53.040;8.850;2024-01-30T00:38:34;26.40;;;19.60;;
32333;SDS011;18810;53.040;8.850;2024-01-30T00:41:00;26.52;;;19.67;;
32333;SDS011;18810;53.040;8.850;2024-01-30T00:43:27;26.63;;;19.25;;
32333;SDS011;18810;53.040;8.850;2024-01-30T00:45:53;28.08;;;19.27;;
32333;SDS011;18810;53.040;8.850;2024-01-30T00:48:19;27.45;;;20.27;;
32333;SDS011;18810;53.040;8.850;2024-01-30T00:50:45;29.83;;;19.92;;
32333;SDS011;18810;53.040;8.850;2024-01-30T00:53:10;27.58;;;20.02;;
32333;SDS011;18810;53.040;8.850;2024-01-30T00:55:36;29.05;;;19.58;;
32333;SDS011;18810;53.040;8.850;2024-01-30T00:58:02;26.30;;;19.48;;
32333;SDS011;18810;53.040;8.850;2024-01-30T01:00:28;29.95;;;20.65;;
32333;SDS011;18810;53.040;8.850;2024-01-30T01:02:56;26.48;;;18.58;;
32333;SDS011;18810;53.040;8.850;2024-01-30T01:05:22;26.58;;;18.75;;
32333;SDS011;18810;53.040;8.850;2024-01-30T01:07:48;29.33;;;20.23;;
32333;SDS011;18810;53.040;8.850;2024-01-30T01:10:14;29.88;;;19.77;;
32333;SDS011;18810;53.040;8.850;2024-01-30T01:12:42;27.60;;;19.30;;
32333;SDS011;18810;53.040;8.850;2024-01-30T01:15:08;28.75;;;20.60;;
32333;SDS011;18810;53.040;8.850;2024-01-30T01:17:37;29.95;;;19.15;;
32333;SDS011;18810;53.040;8.850;2024-01-30T01:20:03;27.83;;;19.60;;
32333;SDS011;18810;53.040;8.850;2024-01-30T01:22:31;27.25;;;19.90;;
32333;SDS011;18810;53.040;8.850;2024-01-30T01:24:57;27.85;;;19.80;;
32333;SDS011;18810;53.040;8.850;2024-01-30T01:27:24;27.80;;;19.65;;
32333;SDS011;18810;53.040;8.850;2024-01-30T01:29:50;30.85;;;19.20;;
32333;SDS011;18810;53.040;8.850;2024-01-30T01:32:16;26.23;;;19.05;;
32333;SDS011;18810;53.040;8.850;2024-01-30T01:34:42;29.45;;;19.15;;
32333;SDS011;18810;53.040;8.850;2024-01-30T01:37:07;24.67;;;18.88;;
32333;SDS011;18810;53.040;8.850;2024-01-30T01:39:33;24.80;;;17.58;;
32333;SDS011;18810;53.040;8.850;2024-01-30T01:41:59;27.23;;;18.60;;
32333;SDS011;18810;53.040;8.850;2024-01-30T01:44:25;27.17;;;18.80;;
32333;SDS011;18810;53.040;8.850;2024-01-30T01:46:51;26.85;;;19.05;;
32333;SDS011;18810;53.040;8.850;2024-01-30T01:49:17;27.15;;;19.27;;
32333;SDS011;18810;53.040;8.850;2024-01-30T01:51:44;27.17;;;18.73;;
32333;SDS011;18810;53.040;8.850;2024-01-30T01:54:12;24.23;;;18.70;;
32333;SDS011;18810;53.040;8.850;2024-01-30T01:56:39;27.67;;;18.75;;
32333;SDS011;18810;53.040;8.850;2024-01-30T01:59:06;23.13;;;17.67;;
32333;SDS011;18810;53.040;8.850;2024-01-30T02:01:33;25.33;;;18.58;;
32333;SDS011;18810;53.040;8.850;2024-01-30T02:03:59;25.45;;;18.52;;
32333;SDS011;18810;53.040;8.850;2024-01-30T02:06:26;26.85;;;18.77;;
32333;SDS011;18810;53.040;8.850;2024-01-30T02:08:52;25.80;;;17.65;;
32333;SDS011;18810;53.040;8.850;2024-01-30T02:11:19;29.20;;;20.08;;
32333;SDS011;18810;53.040;8.850;2024-01-30T02:13:45;29.98;;;20.10;;
32333;SDS011;18810;53.040;8.850;2024-01-30T02:16:11;29.38;;;20.15;;
32333;SDS011;18810;53.040;8.850;2024-01-30T02:18:37;26.75;;;19.95;;
32333;SDS011;18810;53.040;8.850;2024-01-30T02:21:07;25.88;;;18.77;;
32333;SDS011;18810;53.040;8.850;2024-01-30T02:23:33;25.88;;;18.42;;
32333;SDS011;18810;53.040;8.850;2024-01-30T02:25:59;25.92;;;18.80;;
32333;SDS011;18810;53.040;8.850;2024-01-30T02:28:25;28.23;;;19.30;;
32333;SDS011;18810;53.040;8.850;2024-01-30T02:30:52;29.17;;;19.63;;
32333;SDS011;18810;53.040;8.850;2024-01-30T02:33:18;26.80;;;18.75;;
32333;SDS011;18810;53.040;8.850;2024-01-30T02:35:44;26.30;;;20.08;;
32333;SDS011;18810;53.040;8.850;2024-01-30T02:38:09;29.38;;;19.40;;
32333;SDS011;18810;53.040;8.850;2024-01-30T02:40:35;27.50;;;19.30;;
32333;SDS011;18810;53.040;8.850;2024-01-30T02:43:01;25.75;;;19.63;;
32333;SDS011;18810;53.040;8.850;2024-01-30T02:45:28;33.42;;;20.25;;
32333;SDS011;18810;53.040;8.850;2024-01-30T02:47:53;26.85;;;20.25;;
32333;SDS011;18810;53.040;8.850;2024-01-30T02:50:19;29.55;;;20.15;;
32333;SDS011;18810;53.040;8.850;2024-01-30T02:52:45;28.48;;;20.05;;
32333;SDS011;18810;53.040;8.850;2024-01-30T02:55:11;24.73;;;18.33;;
32333;SDS011;18810;53.040;8.850;2024-01-30T02:57:37;31.67;;;19.92;;
32333;SDS011;18810;53.040;8.850;2024-01-30T03:00:03;28.17;;;19.98;;
32333;SDS011;18810;53.040;8.850;2024-01-30T03:02:31;28.35;;;20.35;;
32333;SDS011;18810;53.040;8.850;2024-01-30T03:04:59;24.40;;;18.75;;
32333;SDS011;18810;53.040;8.850;2024-01-30T03:07:25;29.92;;;20.27;;
32333;SDS011;18810;53.040;8.850;2024-01-30T03:09:51;32.40;;;20.67;;
32333;SDS011;18810;53.040;8.850;2024-01-30T03:12:17;32.47;;;22.02;;
32333;SDS011;18810;53.040;8.850;2024-01-30T03:14:43;30.30;;;21.75;;
32333;SDS011;18810;53.040;8.850;2024-01-30T03:17:09;30.77;;;21.33;;
32333;SDS011;18810;53.040;8.850;2024-01-30T03:19:35;31.30;;;20.77;;
32333;SDS011;18810;53.040;8.850;2024-01-30T03:22:00;30.60;;;21.17;;
32333;SDS011;18810;53.040;8.850;2024-01-30T03:24:26;34.88;;;22.17;;
32333;SDS011;18810;53.040;8.850;2024-01-30T03:26:52;30.75;;;22.00;;
32333;SDS011;18810;53.040;8.850;2024-01-30T03:29:18;34.92;;;23.33;;
32333;SDS011;18810;53.040;8.850;2024-01-30T03:31:44;35.95;;;22.13;;
32333;SDS011;18810;53.040;8.850;2024-01-30T03:34:10;36.05;;;23.15;;
32333;SDS011;18810;53.040;8.850;2024-01-30T03:36:35;34.40;;;23.83;;
32333;SDS011;18810;53.040;8.850;2024-01-30T03:39:01;32.80;;;22.27;;
32333;SDS011;18810;53.040;8.850;2024-01-30T03:41:27;35.92;;;22.90;;
32333;SDS011;18810;53.040;8.850;2024-01-30T03:43:53;34.00;;;22.88;;
32333;SDS011;18810;53.040;8.850;2024-01-30T03:46:18;35.15;;;22.25;;
32333;SDS011;18810;53.040;8.850;2024-01-30T03:48:45;35.53;;;23.02;;
32333;SDS011;18810;53.040;8.850;2024-01-30T03:51:11;33.88;;;22.90;;
32333;SDS011;18810;53.040;8.850;2024-01-30T03:53:39;33.83;;;22.75;;
32333;SDS011;18810;53.040;8.850;2024-01-30T03:56:06;33.20;;;22.35;;
32333;SDS011;18810;53.040;8.850;2024-01-30T03:58:32;34.58;;;22.85;;
32333;SDS011;18810;53.040;8.850;2024-01-30T04:00:58;32.13;;;21.75;;
32333;SDS011;18810;53.040;8.850;2024-01-30T04:03:23;34.20;;;23.67;;
32333;SDS011;18810;53.040;8.850;2024-01-30T04:05:49;31.05;;;21.35;;
32333;SDS011;18810;53.040;8.850;2024-01-30T04:08:16;34.90;;;23.77;;
32333;SDS011;18810;53.040;8.850;2024-01-30T04:10:42;38.85;;;23.92;;
32333;SDS011;18810;53.040;8.850;2024-01-30T04:13:08;33.60;;;22.75;;
32333;SDS011;18810;53.040;8.850;2024-01-30T04:15:34;36.13;;;23.63;;
32333;SDS011;18810;53.040;8.850;2024-01-30T04:18:00;35.78;;;23.40;;
32333;SDS011;18810;53.040;8.850;2024-01-30T04:20:25;34.22;;;24.35;;
32333;SDS011;18810;53.040;8.850;2024-01-30T04:22:51;34.15;;;23.55;;
32333;SDS011;18810;53.040;8.850;2024-01-30T04:25:17;35.15;;;24.02;;
32333;SDS011;18810;53.040;8.850;2024-01-30T04:27:43;36.30;;;24.90;;
32333;SDS011;18810;53.040;8.850;2024-01-30T04:30:09;35.90;;;23.92;;
32333;SDS011;18810;53.040;8.850;2024-01-30T04:32:35;34.85;;;25.08;;
32333;SDS011;18810;53.040;8.850;2024-01-30T04:35:01;35.72;;;24.60;;
32333;SDS011;18810;53.040;8.850;2024-01-30T04:37:27;37.28;;;24.08;;
32333;SDS011;18810;53.040;8.850;2024-01-30T04:39:53;33.75;;;23.80;;
32333;SDS011;18810;53.040;8.850;2024-01-30T04:42:19;37.72;;;25.00;;
32333;SDS011;18810;53.040;8.850;2024-01-30T04:44:44;38.28;;;25.02;;
32333;SDS011;18810;53.040;8.850;2024-01-30T04:47:10;34.00;;;23.92;;
32333;SDS011;18810;53.040;8.850;2024-01-30T04:49:38;34.83;;;23.27;;
32333;SDS011;18810;53.040;8.850;2024-01-30T04:52:07;34.40;;;23.33;;
32333;SDS011;18810;53.040;8.850;2024-01-30T04:54:34;30.70;;;22.65;;
32333;SDS011;18810;53.040;8.850;2024-01-30T04:57:00;31.88;;;22.60;;
32333;SDS011;18810;53.040;8.850;2024-01-30T04:59:26;34.22;;;22.80;;
32333;SDS011;18810;53.040;8.850;2024-01-30T05:01:52;33.10;;;23.02;;
32333;SDS011;18810;53.040;8.850;2024-01-30T05:04:18;32.47;;;22.77;;
32333;SDS011;18810;53.040;8.850;2024-01-30T05:06:44;35.13;;;23.92;;
32333;SDS011;18810;53.040;8.850;2024-01-30T05:09:10;32.10;;;23.10;;
32333;SDS011;18810;53.040;8.850;2024-01-30T05:11:37;36.80;;;24.17;;
32333;SDS011;18810;53.040;8.850;2024-01-30T05:14:06;34.80;;;25.42;;
32333;SDS011;18810;53.040;8.850;2024-01-30T05:16:32;35.65;;;24.45;;
32333;SDS011;18810;53.040;8.850;2024-01-30T05:18:58;33.40;;;23.27;;
32333;SDS011;18810;53.040;8.850;2024-01-30T05:21:24;39.38;;;25.02;;
32333;SDS011;18810;53.040;8.850;2024-01-30T05:23:50;37.65;;;25.38;;
32333;SDS011;18810;53.040;8.850;2024-01-30T05:26:16;35.58;;;25.20;;
32333;SDS011;18810;53.040;8.850;2024-01-30T05:28:42;37.22;;;25.95;;
32333;SDS011;18810;53.040;8.850;2024-01-30T05:31:09;37.28;;;26.25;;
32333;SDS011;18810;53.040;8.850;2024-01-30T05:33:35;41.67;;;26.77;;
32333;SDS011;18810;53.040;8.850;2024-01-30T05:36:01;40.15;;;27.20;;
32333;SDS011;18810;53.040;8.850;2024-01-30T05:38:26;40.78;;;26.88;;
32333;SDS011;18810;53.040;8.850;2024-01-30T05:40:52;40.90;;;26.25;;
32333;SDS011;18810;53.040;8.850;2024-01-30T05:43:18;40.13;;;26.42;;
32333;SDS011;18810;53.040;8.850;2024-01-30T05:45:43;41.17;;;27.42;;
32333;SDS011;18810;53.040;8.850;2024-01-30T05:48:09;38.90;;;26.52;;
32333;SDS011;18810;53.040;8.850;2024-01-30T05:50:35;38.38;;;25.77;;
32333;SDS011;18810;53.040;8.850;2024-01-30T05:53:00;39.42;;;27.77;;
32333;SDS011;18810;53.040;8.850;2024-01-30T05:55:26;44.78;;;27.60;;
32333;SDS011;18810;53.040;8.850;2024-01-30T05:57:52;39.13;;;27.60;;
32333;SDS011;18810;53.040;8.850;2024-01-30T06:00:18;39.25;;;26.20;;
32333;SDS011;18810;53.040;8.850;2024-01-30T06:02:44;42.22;;;26.63;;
32333;SDS011;18810;53.040;8.850;2024-01-30T06:05:09;39.85;;;27.00;;
32333;SDS011;18810;53.040;8.850;2024-01-30T06:07:35;39.72;;;26.50;;
32333;SDS011;18810;53.040;8.850;2024-01-30T06:10:01;40.45;;;26.15;;
32333;SDS011;18810;53.040;8.850;2024-01-30T06:12:27;41.47;;;27.70;;
32333;SDS011;18810;53.040;8.850;2024-01-30T06:14:53;42.17;;;27.63;;
32333;SDS011;18810;53.040;8.850;2024-01-30T06:17:22;41.10;;;27.15;;
32333;SDS011;18810;53.040;8.850;2024-01-30T06:19:48;41.30;;;26.40;;
32333;SDS011;18810;53.040;8.850;2024-01-30T06:22:14;40.47;;;28.23;;
32333;SDS011;18810;53.040;8.850;2024-01-30T06:24:40;44.97;;;27.70;;
32333;SDS011;18810;53.040;8.850;2024-01-30T06:27:06;40.17;;;26.83;;
32333;SDS011;18810;53.040;8.850;2024-01-30T06:29:32;45.47;;;28.08;;
32333;SDS011;18810;53.040;8.850;2024-01-30T06:31:58;44.53;;;28.65;;
32333;SDS011;18810;53.040;8.850;2024-01-30T06:34:24;39.33;;;26.83;;
32333;SDS011;18810;53.040;8.850;2024-01-30T06:36:51;42.22;;;27.40;;
32333;SDS011;18810;53.040;8.850;2024-01-30T06:39:17;40.78;;;26.88;;
32333;SDS011;18810;53.040;8.850;2024-01-30T06:41:43;42.33;;;26.95;;
32333;SDS011;18810;53.040;8.850;2024-01-30T06:44:09;39.25;;;26.88;;
32333;SDS011;18810;53.040;8.850;2024-01-30T06:46:35;42.28;;;27.90;;
32333;SDS011;18810;53.040;8.850;2024-01-30T06:49:00;41.08;;;27.70;;
32333;SDS011;18810;53.040;8.850;2024-01-30T06:51:26;44.50;;;27.33;;
32333;SDS011;18810;53.040;8.850;2024-01-30T06:53:52;41.75;;;27.25;;
32333;SDS011;18810;53.040;8.850;2024-01-30T06:56:18;41.83;;;27.17;;
32333;SDS011;18810;53.040;8.850;2024-01-30T06:58:46;40.58;;;27.52;;
32333;SDS011;18810;53.040;8.850;2024-01-30T07:01:15;40.42;;;27.65;;
32333;SDS011;18810;53.040;8.850;2024-01-30T07:03:41;44.13;;;28.00;;
32333;SDS011;18810;53.040;8.850;2024-01-30T07:06:07;42.67;;;28.30;;
32333;SDS011;18810;53.040;8.850;2024-01-30T07:08:34;44.25;;;27.73;;
32333;SDS011;18810;53.040;8.850;2024-01-30T07:10:59;42.13;;;28.25;;
32333;SDS011;18810;53.040;8.850;2024-01-30T07:13:25;42.90;;;27.88;;
32333;SDS011;18810;53.040;8.850;2024-01-30T07:15:51;41.45;;;27.85;;
32333;SDS011;18810;53.040;8.850;2024-01-30T07:18:16;40.85;;;26.45;;
32333;SDS011;18810;53.040;8.850;2024-01-30T07:20:42;44.17;;;28.58;;
32333;SDS011;18810;53.040;8.850;2024-01-30T07:23:14;43.65;;;27.27;;
32333;SDS011;18810;53.040;8.850;2024-01-30T07:25:42;44.78;;;27.40;;
32333;SDS011;18810;53.040;8.850;2024-01-30T07:28:13;43.05;;;27.33;;
32333;SDS011;18810;53.040;8.850;2024-01-30T07:30:41;43.72;;;27.35;;
32333;SDS011;18810;53.040;8.850;2024-01-30T07:33:08;41.67;;;27.85;;
32333;SDS011;18810;53.040;8.850;2024-01-30T07:35:34;43.42;;;27.85;;
32333;SDS011;18810;53.040;8.850;2024-01-30T07:38:00;45.05;;;27.33;;
32333;SDS011;18810;53.040;8.850;2024-01-30T07:40:25;40.33;;;26.73;;
32333;SDS011;18810;53.040;8.850;2024-01-30T07:42:52;42.47;;;26.50;;
32333;SDS011;18810;53.040;8.850;2024-01-30T07:45:18;39.15;;;25.55;;
32333;SDS011;18810;53.040;8.850;2024-01-30T07:47:48;39.88;;;26.15;;
32333;SDS011;18810;53.040;8.850;2024-01-30T07:50:17;41.58;;;26.98;;
32333;SDS011;18810;53.040;8.850;2024-01-30T07:52:43;40.53;;;26.35;;
32333;SDS011;18810;53.040;8.850;2024-01-30T07:55:09;42.38;;;27.08;;
32333;SDS011;18810;53.040;8.850;2024-01-30T07:57:35;39.80;;;25.10;;
32333;SDS011;18810;53.040;8.850;2024-01-30T08:00:04;40.45;;;26.77;;
32333;SDS011;18810;53.040;8.850;2024-01-30T08:02:32;44.60;;;25.75;;
32333;SDS011;18810;53.040;8.850;2024-01-30T08:04:57;40.03;;;25.60;;
32333;SDS011;18810;53.040;8.850;2024-01-30T08:07:23;36.42;;;25.00;;
32333;SDS011;18810;53.040;8.850;2024-01-30T08:09:49;44.22;;;26.58;;
32333;SDS011;18810;53.040;8.850;2024-01-30T08:12:15;37.80;;;24.50;;
32333;SDS011;18810;53.040;8.850;2024-01-30T08:14:41;44.58;;;24.63;;
32333;SDS011;18810;53.040;8.850;2024-01-30T08:17:07;44.05;;;26.25;;
32333;SDS011;18810;53.040;8.850;2024-01-30T08:19:33;37.03;;;23.73;;
32333;SDS011;18810;53.040;8.850;2024-01-30T08:21:58;37.38;;;24.52;;
32333;SDS011;18810;53.040;8.850;2024-01-30T08:24:24;38.92;;;23.67;;
32333;SDS011;18810;53.040;8.850;2024-01-30T08:26:50;32.35;;;22.27;;
32333;SDS011;18810;53.040;8.850;2024-01-30T08:29:16;39.45;;;23.45;;
32333;SDS011;18810;53.040;8.850;2024-01-30T08:31:41;34.55;;;23.30;;
32333;SDS011;18810;53.040;8.850;2024-01-30T08:34:07;35.85;;;23.17;;
32333;SDS011;18810;53.040;8.850;2024-01-30T08:36:33;35.95;;;23.25;;
32333;SDS011;18810;53.040;8.850;2024-01-30T08:38:59;35.95;;;22.95;;
32333;SDS011;18810;53.040;8.850;2024-01-30T08:41:24;34.08;;;22.77;;
32333;SDS011;18810;53.040;8.850;2024-01-30T08:43:51;35.13;;;22.55;;
32333;SDS011;18810;53.040;8.850;2024-01-30T08:46:17;37.10;;;23.33;;
32333;SDS011;18810;53.040;8.850;2024-01-30T08:48:43;36.47;;;23.63;;
32333;SDS011;18810;53.040;8.850;2024-01-30T08:51:10;31.85;;;21.65;;
32333;SDS011;18810;53.040;8.850;2024-01-30T08:53:36;34.75;;;22.52;;
32333;SDS011;18810;53.040;8.850;2024-01-30T08:56:02;33.60;;;22.13;;
32333;SDS011;18810;53.040;8.850;2024-01-30T08:58:28;35.53;;;21.58;;
32333;SDS011;18810;53.040;8.850;2024-01-30T09:00:54;37.13;;;22.60;;
32333;SDS011;18810;53.040;8.850;2024-01-30T09:03:20;32.72;;;20.95;;
32333;SDS011;18810;53.040;8.850;2024-01-30T09:05:45;33.88;;;21.88;;
32333;SDS011;18810;53.040;8.850;2024-01-30T09:08:11;35.08;;;21.73;;
32333;SDS011;18810;53.040;8.850;2024-01-30T09:10:37;31.85;;;20.42;;
32333;SDS011;18810;53.040;8.850;2024-01-30T09:13:02;31.65;;;20.60;;
32333;SDS011;18810;53.040;8.850;2024-01-30T09:15:28;29.83;;;20.50;;
32333;SDS011;18810;53.040;8.850;2024-01-30T09:17:54;29.88;;;19.75;;
32333;SDS011;18810;53.040;8.850;2024-01-30T09:20:20;33.17;;;21.52;;
32333;SDS011;18810;53.040;8.850;2024-01-30T09:22:47;32.92;;;21.08;;
32333;SDS011;18810;53.040;8.850;2024-01-30T09:25:14;35.10;;;20.70;;
32333;SDS011;18810;53.040;8.850;2024-01-30T09:27:40;27.65;;;18.40;;
32333;SDS011;18810;53.040;8.850;2024-01-30T09:30:05;29.23;;;20.10;;
32333;SDS011;18810;53.040;8.850;2024-01-30T09:32:32;28.83;;;19.98;;
32333;SDS011;18810;53.040;8.850;2024-01-30T09:34:58;28.13;;;18.63;;
32333;SDS011;18810;53.040;8.850;2024-01-30T09:37:23;27.65;;;19.55;;
32333;SDS011;18810;53.040;8.850;2024-01-30T09:39:49;30.50;;;19.35;;
32333;SDS011;18810;53.040;8.850;2024-01-30T09:42:21;27.38;;;18.80;;
32333;SDS011;18810;53.040;8.850;2024-01-30T09:44:56;27.77;;;18.63;;
32333;SDS011;18810;53.040;8.850;2024-01-30T09:47:22;29.65;;;19.23;;
32333;SDS011;18810;53.040;8.850;2024-01-30T09:49:48;24.20;;;18.02;;
32333;SDS011;18810;53.040;8.850;2024-01-30T09:52:14;26.92;;;18.00;;
32333;SDS011;18810;53.040;8.850;2024-01-30T09:54:40;31.63;;;21.20;;
32333;SDS011;18810;53.040;8.850;2024-01-30T09:57:07;34.47;;;19.65;;
32333;SDS011;18810;53.040;8.850;2024-01-30T09:59:33;30.75;;;20.05;;
32333;SDS011;18810;53.040;8.850;2024-01-30T10:01:59;28.85;;;17.90;;
32333;SDS011;18810;53.040;8.850;2024-01-30T10:04:25;27.33;;;18.63;;
32333;SDS011;18810;53.040;8.850;2024-01-30T10:06:51;31.48;;;20.65;;
32333;SDS011;18810;53.040;8.850;2024-01-30T10:09:17;28.70;;;18.88;;
32333;SDS011;18810;53.040;8.850;2024-01-30T10:11:42;36.88;;;26.83;;
32333;SDS011;18810;53.040;8.850;2024-01-30T10:14:09;36.38;;;26.33;;
32333;SDS011;18810;53.040;8.850;2024-01-30T10:16:34;38.05;;;24.17;;
32333;SDS011;18810;53.040;8.850;2024-01-30T10:19:00;42.42;;;28.05;;
32333;SDS011;18810;53.040;8.850;2024-01-30T10:21:26;26.45;;;20.05;;
32333;SDS011;18810;53.040;8.850;2024-01-30T10:23:52;30.35;;;17.98;;
32333;SDS011;18810;53.040;8.850;2024-01-30T10:26:18;26.05;;;17.77;;
32333;SDS011;18810;53.040;8.850;2024-01-30T10:28:44;28.45;;;19.23;;
32333;SDS011;18810;53.040;8.850;2024-01-30T10:31:10;25.30;;;18.52;;
32333;SDS011;18810;53.040;8.850;2024-01-30T10:33:36;23.27;;;15.95;;
32333;SDS011;18810;53.040;8.850;2024-01-30T10:36:02;25.13;;;15.90;;
32333;SDS011;18810;53.040;8.850;2024-01-30T10:38:30;23.70;;;16.23;;
32333;SDS011;18810;53.040;8.850;2024-01-30T10:40:57;21.40;;;15.07;;
32333;SDS011;18810;53.040;8.850;2024-01-30T10:43:24;22.40;;;16.10;;
32333;SDS011;18810;53.040;8.850;2024-01-30T10:46:27;21.60;;;15.63;;
32333;SDS011;18810;53.040;8.850;2024-01-30T10:48:58;25.02;;;15.88;;
32333;SDS011;18810;53.040;8.850;2024-01-30T10:51:26;19.55;;;15.80;;
32333;SDS011;18810;53.040;8.850;2024-01-30T10:53:52;19.60;;;14.48;;
32333;SDS011;18810;53.040;8.850;2024-01-30T10:56:22;22.05;;;15.52;;
32333;SDS011;18810;53.040;8.850;2024-01-30T10:58:51;22.67;;;14.80;;
32333;SDS011;18810;53.040;8.850;2024-01-30T11:01:22;18.27;;;14.05;;
32333;SDS011;18810;53.040;8.850;2024-01-30T11:03:49;21.83;;;14.63;;
32333;SDS011;18810;53.040;8.850;2024-01-30T11:06:16;19.95;;;14.57;;
32333;SDS011;18810;53.040;8.850;2024-01-30T11:08:45;20.25;;;14.70;;
32333;SDS011;18810;53.040;8.850;2024-01-30T11:11:11;20.95;;;14.98;;
32333;SDS011;18810;53.040;8.850;2024-01-30T11:13:37;21.67;;;14.52;;
32333;SDS011;18810;53.040;8.850;2024-01-30T11:16:05;20.13;;;15.02;;
32333;SDS011;18810;53.040;8.850;2024-01-30T11:18:32;22.40;;;14.75;;
32333;SDS011;18810;53.040;8.850;2024-01-30T11:21:00;17.40;;;13.05;;
32333;SDS011;18810;53.040;8.850;2024-01-30T11:23:27;20.08;;;14.65;;
32333;SDS011;18810;53.040;8.850;2024-01-30T11:25:54;20.33;;;14.57;;
32333;SDS011;18810;53.040;8.850;2024-01-30T11:28:21;19.65;;;13.43;;
32333;SDS011;18810;53.040;8.850;2024-01-30T11:30:47;26.38;;;14.52;;
32333;SDS011;18810;53.040;8.850;2024-01-30T11:33:16;19.98;;;14.30;;
32333;SDS011;18810;53.040;8.850;2024-01-30T11:35:57;17.58;;;13.15;;
32333;SDS011;18810;53.040;8.850;2024-01-30T11:38:24;18.05;;;13.48;;
32333;SDS011;18810;53.040;8.850;2024-01-30T11:40:52;17.40;;;12.50;;
32333;SDS011;18810;53.040;8.850;2024-01-30T11:43:19;22.55;;;13.45;;
32333;SDS011;18810;53.040;8.850;2024-01-30T11:45:45;16.75;;;12.82;;
32333;SDS011;18810;53.040;8.850;2024-01-30T11:48:12;16.60;;;12.75;;
32333;SDS011;18810;53.040;8.850;2024-01-30T11:50:38;21.25;;;13.20;;
32333;SDS011;18810;53.040;8.850;2024-01-30T11:53:05;21.35;;;12.75;;
32333;SDS011;18810;53.040;8.850;2024-01-30T11:55:31;18.13;;;12.45;;
32333;SDS011;18810;53.040;8.850;2024-01-30T11:57:58;20.88;;;13.40;;
32333;SDS011;18810;53.040;8.850;2024-01-30T12:00:24;18.52;;;12.98;;
32333;SDS011;18810;53.040;8.850;2024-01-30T12:02:51;20.25;;;12.90;;
32333;SDS011;18810;53.040;8.850;2024-01-30T12:05:21;21.17;;;13.40;;
32333;SDS011;18810;53.040;8.850;2024-01-30T12:07:47;20.13;;;13.45;;
32333;SDS011;18810;53.040;8.850;2024-01-30T12:10:13;18.42;;;13.18;;
32333;SDS011;18810;53.040;8.850;2024-01-30T12:12:40;21.73;;;13.82;;
32333;SDS011;18810;53.040;8.850;2024-01-30T12:15:08;19.67;;;12.45;;
32333;SDS011;18810;53.040;8.850;2024-01-30T12:17:35;18.83;;;12.95;;
32333;SDS011;18810;53.040;8.850;2024-01-30T12:20:08;19.23;;;13.35;;
32333;SDS011;18810;53.040;8.850;2024-01-30T12:22:44;20.67;;;13.48;;
32333;SDS011;18810;53.040;8.850;2024-01-30T12:25:18;20.70;;;12.85;;
32333;SDS011;18810;53.040;8.850;2024-01-30T12:27:46;20.63;;;12.52;;
32333;SDS011;18810;53.040;8.850;2024-01-30T12:30:15;19.02;;;12.98;;
32333;SDS011;18810;53.040;8.850;2024-01-30T12:32:41;18.50;;;14.13;;
32333;SDS011;18810;53.040;8.850;2024-01-30T12:35:14;17.25;;;12.18;;
32333;SDS011;18810;53.040;8.850;2024-01-30T12:37:42;21.25;;;13.82;;
32333;SDS011;18810;53.040;8.850;2024-01-30T12:40:09;21.58;;;13.25;;
32333;SDS011;18810;53.040;8.850;2024-01-30T12:42:38;24.60;;;14.25;;
32333;SDS011;18810;53.040;8.850;2024-01-30T12:45:04;21.30;;;13.90;;
32333;SDS011;18810;53.040;8.850;2024-01-30T12:47:31;20.17;;;12.93;;
32333;SDS011;18810;53.040;8.850;2024-01-30T12:49:57;20.52;;;13.48;;
32333;SDS011;18810;53.040;8.850;2024-01-30T12:52:23;21.00;;;13.52;;
32333;SDS011;18810;53.040;8.850;2024-01-30T12:54:49;22.83;;;14.05;;
32333;SDS011;18810;53.040;8.850;2024-01-30T12:57:15;22.27;;;13.80;;
32333;SDS011;18810;53.040;8.850;2024-01-30T12:59:42;26.10;;;13.80;;
32333;SDS011;18810;53.040;8.850;2024-01-30T13:02:09;21.95;;;13.88;;
32333;SDS011;18810;53.040;8.850;2024-01-30T13:04:35;20.10;;;12.93;;
32333;SDS011;18810;53.040;8.850;2024-01-30T13:07:01;20.35;;;14.02;;
32333;SDS011;18810;53.040;8.850;2024-01-30T13:09:29;22.05;;;13.82;;
32333;SDS011;18810;53.040;8.850;2024-01-30T13:11:55;21.13;;;13.60;;
32333;SDS011;18810;53.040;8.850;2024-01-30T13:14:21;23.15;;;13.82;;
32333;SDS011;18810;53.040;8.850;2024-01-30T13:16:47;20.00;;;13.60;;
32333;SDS011;18810;53.040;8.850;2024-01-30T13:19:12;21.98;;;14.85;;
32333;SDS011;18810;53.040;8.850;2024-01-30T13:21:38;20.13;;;13.80;;
32333;SDS011;18810;53.040;8.850;2024-01-30T13:24:04;23.23;;;14.13;;
32333;SDS011;18810;53.040;8.850;2024-01-30T13:26:31;19.73;;;13.65;;
32333;SDS011;18810;53.040;8.850;2024-01-30T13:28:58;24.25;;;14.40;;
32333;SDS011;18810;53.040;8.850;2024-01-30T13:31:23;22.92;;;13.80;;
32333;SDS011;18810;53.040;8.850;2024-01-30T13:33:50;24.08;;;14.35;;
32333;SDS011;18810;53.040;8.850;2024-01-30T13:36:15;25.15;;;15.05;;
32333;SDS011;18810;53.040;8.850;2024-01-30T13:38:41;25.45;;;14.23;;
32333;SDS011;18810;53.040;8.850;2024-01-30T13:41:07;23.42;;;14.05;;
32333;SDS011;18810;53.040;8.850;2024-01-30T13:43:33;26.00;;;14.55;;
32333;SDS011;18810;53.040;8.850;2024-01-30T13:45:58;22.52;;;13.52;;
32333;SDS011;18810;53.040;8.850;2024-01-30T13:48:24;20.63;;;13.88;;
32333;SDS011;18810;53.040;8.850;2024-01-30T13:50:50;20.80;;;13.93;;
32333;SDS011;18810;53.040;8.850;2024-01-30T13:53:15;20.77;;;14.13;;
32333;SDS011;18810;53.040;8.850;2024-01-30T13:55:41;18.13;;;13.50;;
32333;SDS011;18810;53.040;8.850;2024-01-30T13:58:07;25.83;;;14.43;;
32333;SDS011;18810;53.040;8.850;2024-01-30T14:00:33;20.17;;;12.77;;
32333;SDS011;18810;53.040;8.850;2024-01-30T14:02:59;23.30;;;13.95;;
32333;SDS011;18810;53.040;8.850;2024-01-30T14:05:25;19.30;;;14.13;;
32333;SDS011;18810;53.040;8.850;2024-01-30T14:07:53;20.52;;;13.63;;
32333;SDS011;18810;53.040;8.850;2024-01-30T14:10:19;23.67;;;13.98;;
32333;SDS011;18810;53.040;8.850;2024-01-30T14:12:45;18.73;;;13.73;;
32333;SDS011;18810;53.040;8.850;2024-01-30T14:15:13;25.90;;;14.23;;
32333;SDS011;18810;53.040;8.850;2024-01-30T14:17:40;22.23;;;14.10;;